sensor_id;sensor_type;location;lat;lon;timestamp;P1;durP1;ratioP1;P2;durP2;ratioP2
5876;SDS011;2964;42.144;24.730;2023-07-08T00:00:18;12.55;;;11.30;;
5876;SDS011;2964;42.144;24.730;2023-07-08T00:02:45;11.90;;;11.02;;
5876;SDS011;2964;42.144;24.730;2023-07-08T00:05:13;12.60;;;11.43;;
5876;SDS011;2964;42.144;24.730;2023-07-08T00:07:41;12.77;;;11.02;;
5876;SDS011;2964;42.144;24.730;2023-07-08T00:10:12;12.93;;;11.55;;
5876;SDS011;2964;42.144;24.730;2023-07-08T00:12:42;13.15;;;11.98;;
5876;SDS011;2964;42.144;24.730;2023-07-08T00:15:10;12.35;;;11.25;;
5876;SDS011;2964;42.144;24.730;2023-07-08T00:17:37;12.90;;;11.32;;
5876;SDS011;2964;42.144;24.730;2023-07-08T00:20:09;11.90;;;10.90;;
5876;SDS011;2964;42.144;24.730;2023-07-08T00:22:39;11.38;;;10.63;;
5876;SDS011;2964;42.144;24.730;2023-07-08T00:25:06;11.65;;;10.77;;
5876;SDS011;2964;42.144;24.730;2023-07-08T00:27:33;12.05;;;11.05;;
5876;SDS011;2964;42.144;24.730;2023-07-08T00:30:01;11.52;;;10.80;;
5876;SDS011;2964;42.144;24.730;2023-07-08T00:32:28;12.00;;;11.07;;
5876;SDS011;2964;42.144;24.730;2023-07-08T00:34:54;12.18;;;11.32;;
5876;SDS011;2964;42.144;24.730;2023-07-08T00:37:21;12.45;;;11.40;;
5876;SDS011;2964;42.144;24.730;2023-07-08T00:39:48;11.90;;;10.95;;
5876;SDS011;2964;42.144;24.730;2023-07-08T00:42:16;12.07;;;11.23;;
5876;SDS011;2964;42.144;24.730;2023-07-08T00:44:45;12.20;;;11.23;;
5876;SDS011;2964;42.144;24.730;2023-07-08T00:47:14;12.40;;;10.80;;
5876;SDS011;2964;42.144;24.730;2023-07-08T00:49:43;13.13;;;11.77;;
5876;SDS011;2964;42.144;24.730;2023-07-08T00:52:22;11.65;;;10.73;;
5876;SDS011;2964;42.144;24.730;2023-07-08T00:54:50;12.40;;;11.32;;
5876;SDS011;2964;42.144;24.730;2023-07-08T00:57:19;11.85;;;10.85;;
5876;SDS011;2964;42.144;24.730;2023-07-08T00:59:48;11.57;;;10.70;;
5876;SDS011;2964;42.144;24.730;2023-07-08T01:02:22;12.48;;;10.95;;
5876;SDS011;2964;42.144;24.730;2023-07-08T01:04:52;11.05;;;10.15;;
5876;SDS011;2964;42.144;24.730;2023-07-08T01:07:24;12.20;;;10.73;;
5876;SDS011;2964;42.144;24.730;2023-07-08T01:09:53;11.02;;;10.05;;
5876;SDS011;2964;42.144;24.730;2023-07-08T01:12:25;14.93;;;10.73;;
5876;SDS011;2964;42.144;24.730;2023-07-08T01:14:55;10.70;;;9.77;;
5876;SDS011;2964;42.144;24.730;2023-07-08T01:17:24;10.07;;;9.38;;
5876;SDS011;2964;42.144;24.730;2023-07-08T01:19:51;11.23;;;10.25;;
5876;SDS011;2964;42.144;24.730;2023-07-08T01:22:21;11.23;;;10.32;;
5876;SDS011;2964;42.144;24.730;2023-07-08T01:24:48;10.52;;;9.73;;
5876;SDS011;2964;42.144;24.730;2023-07-08T01:27:16;10.40;;;9.77;;
5876;SDS011;2964;42.144;24.730;2023-07-08T01:29:44;11.90;;;10.80;;
5876;SDS011;2964;42.144;24.730;2023-07-08T01:32:12;11.35;;;10.48;;
5876;SDS011;2964;42.144;24.730;2023-07-08T01:34:43;11.43;;;10.70;;
5876;SDS011;2964;42.144;24.730;2023-07-08T01:37:27;11.82;;;11.00;;
5876;SDS011;2964;42.144;24.730;2023-07-08T01:39:58;11.43;;;10.63;;
5876;SDS011;2964;42.144;24.730;2023-07-08T01:42:49;11.38;;;10.63;;
5876;SDS011;2964;42.144;24.730;2023-07-08T01:45:16;12.15;;;11.13;;
5876;SDS011;2964;42.144;24.730;2023-07-08T01:47:46;11.90;;;10.70;;
5876;SDS011;2964;42.144;24.730;2023-07-08T01:50:15;11.18;;;10.27;;
5876;SDS011;2964;42.144;24.730;2023-07-08T01:52:44;13.57;;;12.18;;
5876;SDS011;2964;42.144;24.730;2023-07-08T01:55:10;12.75;;;11.55;;
5876;SDS011;2964;42.144;24.730;2023-07-08T01:57:37;12.80;;;11.52;;
5876;SDS011;2964;42.144;24.730;2023-07-08T02:00:04;12.75;;;11.50;;
5876;SDS011;2964;42.144;24.730;2023-07-08T02:02:32;11.85;;;10.85;;
5876;SDS011;2964;42.144;24.730;2023-07-08T02:04:58;11.75;;;10.55;;
5876;SDS011;2964;42.144;24.730;2023-07-08T02:07:25;11.63;;;10.73;;
5876;SDS011;2964;42.144;24.730;2023-07-08T02:09:53;11.88;;;10.98;;
5876;SDS011;2964;42.144;24.730;2023-07-08T02:12:20;11.68;;;10.77;;
5876;SDS011;2964;42.144;24.730;2023-07-08T02:14:46;12.32;;;11.18;;
5876;SDS011;2964;42.144;24.730;2023-07-08T02:17:13;12.48;;;11.20;;
5876;SDS011;2964;42.144;24.730;2023-07-08T02:19:41;13.60;;;11.65;;
5876;SDS011;2964;42.144;24.730;2023-07-08T02:22:08;12.20;;;11.20;;
5876;SDS011;2964;42.144;24.730;2023-07-08T02:24:35;13.80;;;12.38;;
5876;SDS011;2964;42.144;24.730;2023-07-08T02:27:03;11.93;;;11.02;;
5876;SDS011;2964;42.144;24.730;2023-07-08T02:29:30;13.60;;;12.40;;
5876;SDS011;2964;42.144;24.730;2023-07-08T02:31:58;13.35;;;12.45;;
5876;SDS011;2964;42.144;24.730;2023-07-08T02:34:24;14.38;;;12.93;;
5876;SDS011;2964;42.144;24.730;2023-07-08T02:36:51;14.30;;;13.20;;
5876;SDS011;2964;42.144;24.730;2023-07-08T02:39:18;14.13;;;12.73;;
5876;SDS011;2964;42.144;24.730;2023-07-08T02:41:44;15.88;;;13.70;;
5876;SDS011;2964;42.144;24.730;2023-07-08T02:44:12;14.50;;;13.30;;
5876;SDS011;2964;42.144;24.730;2023-07-08T02:46:39;15.05;;;13.77;;
5876;SDS011;2964;42.144;24.730;2023-07-08T02:49:06;15.87;;;14.23;;
5876;SDS011;2964;42.144;24.730;2023-07-08T02:51:33;15.48;;;14.38;;
5876;SDS011;2964;42.144;24.730;2023-07-08T02:53:59;22.10;;;14.90;;
5876;SDS011;2964;42.144;24.730;2023-07-08T02:56:26;17.08;;;15.80;;
5876;SDS011;2964;42.144;24.730;2023-07-08T02:58:53;16.65;;;15.13;;
5876;SDS011;2964;42.144;24.730;2023-07-08T03:01:21;16.55;;;15.23;;
5876;SDS011;2964;42.144;24.730;2023-07-08T03:03:48;18.75;;;16.80;;
5876;SDS011;2964;42.144;24.730;2023-07-08T03:06:15;18.10;;;15.98;;
5876;SDS011;2964;42.144;24.730;2023-07-08T03:08:42;18.75;;;16.85;;
5876;SDS011;2964;42.144;24.730;2023-07-08T03:11:09;18.02;;;16.60;;
5876;SDS011;2964;42.144;24.730;2023-07-08T03:13:36;18.17;;;16.55;;
5876;SDS011;2964;42.144;24.730;2023-07-08T03:16:02;17.55;;;16.13;;
5876;SDS011;2964;42.144;24.730;2023-07-08T03:18:39;18.83;;;16.73;;
5876;SDS011;2964;42.144;24.730;2023-07-08T03:21:11;17.83;;;16.33;;
5876;SDS011;2964;42.144;24.730;2023-07-08T03:23:38;18.55;;;16.95;;
5876;SDS011;2964;42.144;24.730;2023-07-08T03:26:05;18.42;;;17.05;;
5876;SDS011;2964;42.144;24.730;2023-07-08T03:28:32;18.55;;;16.83;;
5876;SDS011;2964;42.144;24.730;2023-07-08T03:30:59;19.85;;;18.15;;
5876;SDS011;2964;42.144;24.730;2023-07-08T03:33:25;18.95;;;17.40;;
5876;SDS011;2964;42.144;24.730;2023-07-08T03:35:53;20.98;;;18.45;;
5876;SDS011;2964;42.144;24.730;2023-07-08T03:38:21;19.92;;;17.90;;
5876;SDS011;2964;42.144;24.730;2023-07-08T03:40:47;20.07;;;18.17;;
5876;SDS011;2964;42.144;24.730;2023-07-08T03:43:15;19.48;;;17.70;;
5876;SDS011;2964;42.144;24.730;2023-07-08T03:45:41;19.52;;;17.60;;
5876;SDS011;2964;42.144;24.730;2023-07-08T03:48:08;19.52;;;17.88;;
5876;SDS011;2964;42.144;24.730;2023-07-08T03:50:36;19.98;;;18.38;;
5876;SDS011;2964;42.144;24.730;2023-07-08T03:53:04;19.80;;;17.83;;
5876;SDS011;2964;42.144;24.730;2023-07-08T03:55:31;19.88;;;18.23;;
5876;SDS011;2964;42.144;24.730;2023-07-08T03:57:58;19.48;;;17.73;;
5876;SDS011;2964;42.144;24.730;2023-07-08T04:00:25;20.07;;;18.20;;
5876;SDS011;2964;42.144;24.730;2023-07-08T04:02:51;20.97;;;19.07;;
5876;SDS011;2964;42.144;24.730;2023-07-08T04:05:19;20.07;;;18.37;;
5876;SDS011;2964;42.144;24.730;2023-07-08T04:07:47;20.40;;;18.70;;
5876;SDS011;2964;42.144;24.730;2023-07-08T04:10:15;19.73;;;18.13;;
5876;SDS011;2964;42.144;24.730;2023-07-08T04:12:42;20.83;;;18.90;;
5876;SDS011;2964;42.144;24.730;2023-07-08T04:15:10;20.38;;;18.77;;
5876;SDS011;2964;42.144;24.730;2023-07-08T04:17:39;19.65;;;18.15;;
5876;SDS011;2964;42.144;24.730;2023-07-08T04:20:10;20.95;;;18.30;;
5876;SDS011;2964;42.144;24.730;2023-07-08T04:22:39;20.10;;;18.17;;
5876;SDS011;2964;42.144;24.730;2023-07-08T04:25:06;20.60;;;18.30;;
5876;SDS011;2964;42.144;24.730;2023-07-08T04:27:34;18.33;;;16.80;;
5876;SDS011;2964;42.144;24.730;2023-07-08T04:30:01;19.60;;;17.65;;
5876;SDS011;2964;42.144;24.730;2023-07-08T04:32:29;19.17;;;17.38;;
5876;SDS011;2964;42.144;24.730;2023-07-08T04:34:55;18.65;;;17.25;;
5876;SDS011;2964;42.144;24.730;2023-07-08T04:37:22;18.90;;;17.20;;
5876;SDS011;2964;42.144;24.730;2023-07-08T04:39:49;18.52;;;17.02;;
5876;SDS011;2964;42.144;24.730;2023-07-08T04:42:16;18.13;;;16.58;;
5876;SDS011;2964;42.144;24.730;2023-07-08T04:44:44;18.08;;;16.58;;
5876;SDS011;2964;42.144;24.730;2023-07-08T04:47:10;16.40;;;14.90;;
5876;SDS011;2964;42.144;24.730;2023-07-08T04:49:39;16.55;;;15.02;;
5876;SDS011;2964;42.144;24.730;2023-07-08T04:52:08;16.08;;;14.65;;
5876;SDS011;2964;42.144;24.730;2023-07-08T04:54:35;15.63;;;14.35;;
5876;SDS011;2964;42.144;24.730;2023-07-08T04:57:02;16.30;;;15.00;;
5876;SDS011;2964;42.144;24.730;2023-07-08T04:59:29;15.60;;;14.30;;
5876;SDS011;2964;42.144;24.730;2023-07-08T05:02:00;14.95;;;13.77;;
5876;SDS011;2964;42.144;24.730;2023-07-08T05:04:27;15.45;;;14.25;;
5876;SDS011;2964;42.144;24.730;2023-07-08T05:06:54;15.15;;;14.05;;
5876;SDS011;2964;42.144;24.730;2023-07-08T05:09:21;15.65;;;14.32;;
5876;SDS011;2964;42.144;24.730;2023-07-08T05:11:50;14.70;;;13.63;;
5876;SDS011;2964;42.144;24.730;2023-07-08T05:14:17;15.27;;;13.95;;
5876;SDS011;2964;42.144;24.730;2023-07-08T05:16:44;17.30;;;14.77;;
5876;SDS011;2964;42.144;24.730;2023-07-08T05:19:12;15.18;;;13.95;;
5876;SDS011;2964;42.144;24.730;2023-07-08T05:21:39;14.73;;;13.63;;
5876;SDS011;2964;42.144;24.730;2023-07-08T05:24:06;14.45;;;13.25;;
5876;SDS011;2964;42.144;24.730;2023-07-08T05:26:33;12.95;;;12.20;;
5876;SDS011;2964;42.144;24.730;2023-07-08T05:29:00;13.68;;;12.88;;
5876;SDS011;2964;42.144;24.730;2023-07-08T05:31:26;14.23;;;13.23;;
5876;SDS011;2964;42.144;24.730;2023-07-08T05:33:53;14.48;;;13.10;;
5876;SDS011;2964;42.144;24.730;2023-07-08T05:36:21;14.25;;;13.05;;
5876;SDS011;2964;42.144;24.730;2023-07-08T05:38:48;14.63;;;13.35;;
5876;SDS011;2964;42.144;24.730;2023-07-08T05:41:15;13.57;;;12.60;;
5876;SDS011;2964;42.144;24.730;2023-07-08T05:43:41;14.35;;;13.38;;
5876;SDS011;2964;42.144;24.730;2023-07-08T05:46:08;13.73;;;12.43;;
5876;SDS011;2964;42.144;24.730;2023-07-08T05:48:35;13.80;;;12.90;;
5876;SDS011;2964;42.144;24.730;2023-07-08T05:51:02;12.65;;;11.75;;
5876;SDS011;2964;42.144;24.730;2023-07-08T05:53:30;13.20;;;12.30;;
5876;SDS011;2964;42.144;24.730;2023-07-08T05:55:57;13.30;;;12.23;;
5876;SDS011;2964;42.144;24.730;2023-07-08T05:58:23;12.95;;;11.95;;
5876;SDS011;2964;42.144;24.730;2023-07-08T06:00:54;12.43;;;11.68;;
5876;SDS011;2964;42.144;24.730;2023-07-08T06:03:22;12.15;;;11.45;;
5876;SDS011;2964;42.144;24.730;2023-07-08T06:05:49;11.23;;;10.63;;
5876;SDS011;2964;42.144;24.730;2023-07-08T06:08:16;11.80;;;11.00;;
5876;SDS011;2964;42.144;24.730;2023-07-08T06:10:44;12.18;;;11.25;;
5876;SDS011;2964;42.144;24.730;2023-07-08T06:13:11;11.77;;;10.85;;
5876;SDS011;2964;42.144;24.730;2023-07-08T06:15:39;13.18;;;12.13;;
5876;SDS011;2964;42.144;24.730;2023-07-08T06:18:07;12.93;;;11.70;;
5876;SDS011;2964;42.144;24.730;2023-07-08T06:20:33;11.75;;;11.13;;
5876;SDS011;2964;42.144;24.730;2023-07-08T06:23:00;11.90;;;10.77;;
5876;SDS011;2964;42.144;24.730;2023-07-08T06:25:28;11.20;;;10.57;;
5876;SDS011;2964;42.144;24.730;2023-07-08T06:27:56;14.23;;;12.10;;
5876;SDS011;2964;42.144;24.730;2023-07-08T06:30:22;11.55;;;10.75;;
5876;SDS011;2964;42.144;24.730;2023-07-08T06:32:49;10.50;;;9.95;;
5876;SDS011;2964;42.144;24.730;2023-07-08T06:35:16;11.27;;;10.25;;
5876;SDS011;2964;42.144;24.730;2023-07-08T06:37:42;11.23;;;9.85;;
5876;SDS011;2964;42.144;24.730;2023-07-08T06:40:10;10.45;;;9.80;;
5876;SDS011;2964;42.144;24.730;2023-07-08T06:42:37;9.75;;;8.98;;
5876;SDS011;2964;42.144;24.730;2023-07-08T06:45:05;9.40;;;8.50;;
5876;SDS011;2964;42.144;24.730;2023-07-08T06:47:32;8.73;;;8.23;;
5876;SDS011;2964;42.144;24.730;2023-07-08T06:49:59;8.32;;;7.78;;
5876;SDS011;2964;42.144;24.730;2023-07-08T06:52:26;9.23;;;8.43;;
5876;SDS011;2964;42.144;24.730;2023-07-08T06:54:52;8.77;;;8.07;;
5876;SDS011;2964;42.144;24.730;2023-07-08T06:57:19;8.63;;;8.05;;
5876;SDS011;2964;42.144;24.730;2023-07-08T06:59:46;8.50;;;8.07;;
5876;SDS011;2964;42.144;24.730;2023-07-08T07:02:14;7.90;;;7.50;;
5876;SDS011;2964;42.144;24.730;2023-07-08T07:04:42;8.63;;;7.88;;
5876;SDS011;2964;42.144;24.730;2023-07-08T07:07:09;8.10;;;7.32;;
5876;SDS011;2964;42.144;24.730;2023-07-08T07:09:35;8.15;;;7.50;;
5876;SDS011;2964;42.144;24.730;2023-07-08T07:12:02;8.23;;;7.60;;
5876;SDS011;2964;42.144;24.730;2023-07-08T07:14:30;8.20;;;6.80;;
5876;SDS011;2964;42.144;24.730;2023-07-08T07:16:57;7.47;;;7.05;;
5876;SDS011;2964;42.144;24.730;2023-07-08T07:19:25;8.88;;;7.32;;
5876;SDS011;2964;42.144;24.730;2023-07-08T07:21:52;7.35;;;6.95;;
5876;SDS011;2964;42.144;24.730;2023-07-08T07:24:19;7.85;;;7.25;;
5876;SDS011;2964;42.144;24.730;2023-07-08T07:26:45;9.02;;;8.32;;
5876;SDS011;2964;42.144;24.730;2023-07-08T07:29:13;8.68;;;7.80;;
5876;SDS011;2964;42.144;24.730;2023-07-08T07:31:42;9.32;;;8.63;;
5876;SDS011;2964;42.144;24.730;2023-07-08T07:34:09;8.68;;;7.68;;
5876;SDS011;2964;42.144;24.730;2023-07-08T07:36:37;10.13;;;8.02;;
5876;SDS011;2964;42.144;24.730;2023-07-08T07:39:04;8.88;;;8.38;;
5876;SDS011;2964;42.144;24.730;2023-07-08T07:41:30;13.07;;;11.27;;
5876;SDS011;2964;42.144;24.730;2023-07-08T07:43:57;9.07;;;8.52;;
5876;SDS011;2964;42.144;24.730;2023-07-08T07:46:24;9.65;;;8.60;;
5876;SDS011;2964;42.144;24.730;2023-07-08T07:48:50;7.93;;;7.30;;
5876;SDS011;2964;42.144;24.730;2023-07-08T07:51:17;7.53;;;7.03;;
5876;SDS011;2964;42.144;24.730;2023-07-08T07:53:45;7.90;;;7.47;;
5876;SDS011;2964;42.144;24.730;2023-07-08T07:56:12;9.10;;;8.30;;
5876;SDS011;2964;42.144;24.730;2023-07-08T07:58:38;7.78;;;7.38;;
5876;SDS011;2964;42.144;24.730;2023-07-08T08:01:05;8.05;;;7.55;;
5876;SDS011;2964;42.144;24.730;2023-07-08T08:03:32;8.82;;;8.07;;
5876;SDS011;2964;42.144;24.730;2023-07-08T08:05:58;7.35;;;6.95;;
5876;SDS011;2964;42.144;24.730;2023-07-08T08:08:25;8.50;;;7.90;;
5876;SDS011;2964;42.144;24.730;2023-07-08T08:10:54;7.65;;;6.93;;
5876;SDS011;2964;42.144;24.730;2023-07-08T08:13:20;14.88;;;6.93;;
5876;SDS011;2964;42.144;24.730;2023-07-08T08:15:47;8.57;;;7.85;;
5876;SDS011;2964;42.144;24.730;2023-07-08T08:18:14;7.10;;;6.47;;
5876;SDS011;2964;42.144;24.730;2023-07-08T08:20:40;7.78;;;7.30;;
5876;SDS011;2964;42.144;24.730;2023-07-08T08:23:07;9.00;;;6.80;;
5876;SDS011;2964;42.144;24.730;2023-07-08T08:25:34;7.22;;;6.72;;
5876;SDS011;2964;42.144;24.730;2023-07-08T08:28:02;7.70;;;6.85;;
5876;SDS011;2964;42.144;24.730;2023-07-08T08:30:28;7.05;;;6.57;;
5876;SDS011;2964;42.144;24.730;2023-07-08T08:32:55;7.47;;;6.97;;
5876;SDS011;2964;42.144;24.730;2023-07-08T08:35:22;7.40;;;7.00;;
5876;SDS011;2964;42.144;24.730;2023-07-08T08:37:48;7.57;;;6.97;;
5876;SDS011;2964;42.144;24.730;2023-07-08T08:40:16;7.70;;;6.95;;
5876;SDS011;2964;42.144;24.730;2023-07-08T08:42:44;9.52;;;6.97;;
5876;SDS011;2964;42.144;24.730;2023-07-08T08:45:19;7.22;;;6.72;;
5876;SDS011;2964;42.144;24.730;2023-07-08T08:47:51;7.88;;;6.93;;
5876;SDS011;2964;42.144;24.730;2023-07-08T08:50:25;6.50;;;6.07;;
5876;SDS011;2964;42.144;24.730;2023-07-08T08:52:56;12.35;;;6.90;;
5876;SDS011;2964;42.144;24.730;2023-07-08T08:55:25;6.25;;;5.68;;
5876;SDS011;2964;42.144;24.730;2023-07-08T08:57:53;6.47;;;6.07;;
5876;SDS011;2964;42.144;24.730;2023-07-08T09:00:29;6.45;;;5.95;;
5876;SDS011;2964;42.144;24.730;2023-07-08T09:03:04;6.95;;;6.35;;
5876;SDS011;2964;42.144;24.730;2023-07-08T09:05:37;8.23;;;6.35;;
5876;SDS011;2964;42.144;24.730;2023-07-08T09:08:05;7.38;;;6.72;;
5876;SDS011;2964;42.144;24.730;2023-07-08T09:10:40;7.47;;;6.78;;
5876;SDS011;2964;42.144;24.730;2023-07-08T09:13:11;6.50;;;5.90;;
5876;SDS011;2964;42.144;24.730;2023-07-08T09:15:48;7.15;;;6.65;;
5876;SDS011;2964;42.144;24.730;2023-07-08T09:18:21;6.90;;;6.32;;
5876;SDS011;2964;42.144;24.730;2023-07-08T09:20:54;7.22;;;6.75;;
5876;SDS011;2964;42.144;24.730;2023-07-08T09:23:25;7.03;;;6.63;;
5876;SDS011;2964;42.144;24.730;2023-07-08T09:25:54;7.22;;;6.82;;
5876;SDS011;2964;42.144;24.730;2023-07-08T09:28:34;7.03;;;6.40;;
5876;SDS011;2964;42.144;24.730;2023-07-08T09:31:04;7.40;;;7.00;;
5876;SDS011;2964;42.144;24.730;2023-07-08T09:33:32;8.57;;;6.65;;
5876;SDS011;2964;42.144;24.730;2023-07-08T09:35:59;7.72;;;7.22;;
5876;SDS011;2964;42.144;24.730;2023-07-08T09:38:28;7.15;;;6.45;;
5876;SDS011;2964;42.144;24.730;2023-07-08T09:40:55;6.88;;;6.57;;
5876;SDS011;2964;42.144;24.730;2023-07-08T09:43:24;7.20;;;6.70;;
5876;SDS011;2964;42.144;24.730;2023-07-08T09:45:51;7.80;;;7.25;;
5876;SDS011;2964;42.144;24.730;2023-07-08T09:48:25;7.55;;;6.93;;
5876;SDS011;2964;42.144;24.730;2023-07-08T09:50:54;7.53;;;6.88;;
5876;SDS011;2964;42.144;24.730;2023-07-08T09:53:23;7.88;;;6.55;;
5876;SDS011;2964;42.144;24.730;2023-07-08T09:55:51;6.57;;;6.28;;
5876;SDS011;2964;42.144;24.730;2023-07-08T09:58:21;6.55;;;6.25;;
5876;SDS011;2964;42.144;24.730;2023-07-08T10:00:51;8.23;;;5.90;;
5876;SDS011;2964;42.144;24.730;2023-07-08T10:03:22;6.50;;;5.95;;
5876;SDS011;2964;42.144;24.730;2023-07-08T10:05:52;7.13;;;6.72;;
5876;SDS011;2964;42.144;24.730;2023-07-08T10:08:22;7.95;;;7.22;;
5876;SDS011;2964;42.144;24.730;2023-07-08T10:10:53;7.43;;;6.97;;
5876;SDS011;2964;42.144;24.730;2023-07-08T10:13:26;6.45;;;5.97;;
5876;SDS011;2964;42.144;24.730;2023-07-08T10:16:03;6.97;;;6.50;;
5876;SDS011;2964;42.144;24.730;2023-07-08T10:18:38;7.72;;;6.85;;
5876;SDS011;2964;42.144;24.730;2023-07-08T10:21:08;7.03;;;6.35;;
5876;SDS011;2964;42.144;24.730;2023-07-08T10:23:47;9.77;;;7.05;;
5876;SDS011;2964;42.144;24.730;2023-07-08T10:26:20;6.65;;;6.35;;
5876;SDS011;2964;42.144;24.730;2023-07-08T10:28:55;10.73;;;6.82;;
5876;SDS011;2964;42.144;24.730;2023-07-08T10:31:33;7.43;;;6.68;;
5876;SDS011;2964;42.144;24.730;2023-07-08T10:34:18;6.18;;;5.72;;
5876;SDS011;2964;42.144;24.730;2023-07-08T10:37:00;7.15;;;6.68;;
5876;SDS011;2964;42.144;24.730;2023-07-08T10:42:47;6.78;;;6.18;;
5876;SDS011;2964;42.144;24.730;2023-07-08T10:45:27;6.78;;;6.15;;
5876;SDS011;2964;42.144;24.730;2023-07-08T10:48:05;6.38;;;6.00;;
5876;SDS011;2964;42.144;24.730;2023-07-08T10:50:50;7.15;;;6.55;;
5876;SDS011;2964;42.144;24.730;2023-07-08T10:53:37;6.28;;;5.78;;
5876;SDS011;2964;42.144;24.730;2023-07-08T10:56:13;6.75;;;6.35;;
5876;SDS011;2964;42.144;24.730;2023-07-08T10:58:47;6.57;;;6.03;;
5876;SDS011;2964;42.144;24.730;2023-07-08T11:01:31;6.38;;;5.93;;
5876;SDS011;2964;42.144;24.730;2023-07-08T11:04:20;6.13;;;5.72;;
5876;SDS011;2964;42.144;24.730;2023-07-08T11:07:03;5.47;;;5.03;;
5876;SDS011;2964;42.144;24.730;2023-07-08T11:09:39;7.03;;;6.47;;
5876;SDS011;2964;42.144;24.730;2023-07-08T11:12:13;6.07;;;5.88;;
5876;SDS011;2964;42.144;24.730;2023-07-08T11:14:51;6.75;;;6.32;;
5876;SDS011;2964;42.144;24.730;2023-07-08T11:17:26;6.22;;;5.65;;
5876;SDS011;2964;42.144;24.730;2023-07-08T11:20:00;6.13;;;5.72;;
5876;SDS011;2964;42.144;24.730;2023-07-08T11:22:37;7.00;;;6.10;;
5876;SDS011;2964;42.144;24.730;2023-07-08T11:25:14;6.65;;;6.10;;
5876;SDS011;2964;42.144;24.730;2023-07-08T11:27:44;7.18;;;6.70;;
5876;SDS011;2964;42.144;24.730;2023-07-08T11:30:15;6.53;;;6.22;;
5876;SDS011;2964;42.144;24.730;2023-07-08T11:32:47;6.57;;;6.28;;
5876;SDS011;2964;42.144;24.730;2023-07-08T11:35:21;6.60;;;6.20;;
5876;SDS011;2964;42.144;24.730;2023-07-08T11:37:53;6.13;;;5.80;;
5876;SDS011;2964;42.144;24.730;2023-07-08T11:40:22;7.05;;;6.55;;
5876;SDS011;2964;42.144;24.730;2023-07-08T11:42:50;6.82;;;6.45;;
5876;SDS011;2964;42.144;24.730;2023-07-08T11:45:23;6.80;;;6.40;;
5876;SDS011;2964;42.144;24.730;2023-07-08T11:47:53;7.15;;;6.53;;
5876;SDS011;2964;42.144;24.730;2023-07-08T11:50:31;6.60;;;6.13;;
5876;SDS011;2964;42.144;24.730;2023-07-08T11:53:07;7.68;;;6.05;;
5876;SDS011;2964;42.144;24.730;2023-07-08T11:55:38;7.07;;;6.45;;
5876;SDS011;2964;42.144;24.730;2023-07-08T11:58:15;7.55;;;6.93;;
5876;SDS011;2964;42.144;24.730;2023-07-08T12:00:54;6.65;;;6.07;;
5876;SDS011;2964;42.144;24.730;2023-07-08T12:03:28;6.75;;;5.97;;
5876;SDS011;2964;42.144;24.730;2023-07-08T12:06:00;7.95;;;7.38;;
5876;SDS011;2964;42.144;24.730;2023-07-08T12:08:33;8.00;;;7.50;;
5876;SDS011;2964;42.144;24.730;2023-07-08T12:11:04;6.68;;;6.22;;
5876;SDS011;2964;42.144;24.730;2023-07-08T12:13:36;6.38;;;6.07;;
5876;SDS011;2964;42.144;24.730;2023-07-08T12:16:04;6.15;;;5.85;;
5876;SDS011;2964;42.144;24.730;2023-07-08T12:18:36;6.50;;;6.18;;
5876;SDS011;2964;42.144;24.730;2023-07-08T12:21:11;6.05;;;5.78;;
5876;SDS011;2964;42.144;24.730;2023-07-08T12:23:43;6.28;;;5.88;;
5876;SDS011;2964;42.144;24.730;2023-07-08T12:26:13;6.38;;;5.97;;
5876;SDS011;2964;42.144;24.730;2023-07-08T12:28:41;6.47;;;6.18;;
5876;SDS011;2964;42.144;24.730;2023-07-08T12:31:09;6.43;;;5.88;;
5876;SDS011;2964;42.144;24.730;2023-07-08T12:33:41;6.82;;;6.45;;
5876;SDS011;2964;42.144;24.730;2023-07-08T12:36:09;6.65;;;6.28;;
5876;SDS011;2964;42.144;24.730;2023-07-08T12:38:40;6.15;;;5.93;;
5876;SDS011;2964;42.144;24.730;2023-07-08T12:41:10;5.95;;;5.55;;
5876;SDS011;2964;42.144;24.730;2023-07-08T12:43:40;6.10;;;5.90;;
5876;SDS011;2964;42.144;24.730;2023-07-08T12:46:08;7.40;;;6.90;;
5876;SDS011;2964;42.144;24.730;2023-07-08T12:48:35;6.50;;;6.05;;
5876;SDS011;2964;42.144;24.730;2023-07-08T12:51:03;6.30;;;5.90;;
5876;SDS011;2964;42.144;24.730;2023-07-08T12:53:31;6.70;;;6.30;;
5876;SDS011;2964;42.144;24.730;2023-07-08T12:55:59;6.40;;;6.10;;
5876;SDS011;2964;42.144;24.730;2023-07-08T12:58:28;6.60;;;6.20;;
5876;SDS011;2964;42.144;24.730;2023-07-08T13:00:58;6.13;;;5.82;;
5876;SDS011;2964;42.144;24.730;2023-07-08T13:03:29;7.25;;;6.90;;
5876;SDS011;2964;42.144;24.730;2023-07-08T13:05:58;6.20;;;5.90;;
5876;SDS011;2964;42.144;24.730;2023-07-08T13:08:27;5.95;;;5.55;;
5876;SDS011;2964;42.144;24.730;2023-07-08T13:10:59;5.78;;;5.38;;
5876;SDS011;2964;42.144;24.730;2023-07-08T13:13:31;5.82;;;5.22;;
5876;SDS011;2964;42.144;24.730;2023-07-08T13:16:03;5.93;;;5.53;;
5876;SDS011;2964;42.144;24.730;2023-07-08T13:18:33;5.55;;;5.15;;
5876;SDS011;2964;42.144;24.730;2023-07-08T13:21:01;6.13;;;5.70;;
5876;SDS011;2964;42.144;24.730;2023-07-08T13:23:29;5.80;;;5.40;;
5876;SDS011;2964;42.144;24.730;2023-07-08T13:25:57;6.22;;;5.45;;
5876;SDS011;2964;42.144;24.730;2023-07-08T13:28:24;7.15;;;6.10;;
5876;SDS011;2964;42.144;24.730;2023-07-08T13:30:53;6.22;;;5.40;;
5876;SDS011;2964;42.144;24.730;2023-07-08T13:33:22;6.05;;;5.55;;
5876;SDS011;2964;42.144;24.730;2023-07-08T13:35:50;8.57;;;5.50;;
5876;SDS011;2964;42.144;24.730;2023-07-08T13:38:18;5.93;;;5.07;;
5876;SDS011;2964;42.144;24.730;2023-07-08T13:40:47;6.35;;;4.60;;
5876;SDS011;2964;42.144;24.730;2023-07-08T13:43:16;4.25;;;4.05;;
5876;SDS011;2964;42.144;24.730;2023-07-08T13:45:43;5.50;;;4.65;;
5876;SDS011;2964;42.144;24.730;2023-07-08T13:48:13;7.32;;;4.97;;
5876;SDS011;2964;42.144;24.730;2023-07-08T13:50:50;5.95;;;4.85;;
5876;SDS011;2964;42.144;24.730;2023-07-08T13:53:22;6.55;;;4.10;;
5876;SDS011;2964;42.144;24.730;2023-07-08T13:55:57;4.97;;;4.68;;
5876;SDS011;2964;42.144;24.730;2023-07-08T13:58:27;4.38;;;3.95;;
5876;SDS011;2964;42.144;24.730;2023-07-08T14:00:56;5.60;;;4.75;;
5876;SDS011;2964;42.144;24.730;2023-07-08T14:03:23;4.45;;;4.25;;
5876;SDS011;2964;42.144;24.730;2023-07-08T14:05:52;5.05;;;4.65;;
5876;SDS011;2964;42.144;24.730;2023-07-08T14:08:19;5.05;;;4.38;;
5876;SDS011;2964;42.144;24.730;2023-07-08T14:10:47;5.25;;;4.97;;
5876;SDS011;2964;42.144;24.730;2023-07-08T14:13:14;5.78;;;5.47;;
5876;SDS011;2964;42.144;24.730;2023-07-08T14:15:42;6.95;;;6.32;;
5876;SDS011;2964;42.144;24.730;2023-07-08T14:18:09;8.30;;;6.13;;
5876;SDS011;2964;42.144;24.730;2023-07-08T14:20:37;7.65;;;6.63;;
5876;SDS011;2964;42.144;24.730;2023-07-08T14:23:07;6.28;;;5.63;;
5876;SDS011;2964;42.144;24.730;2023-07-08T14:25:35;6.53;;;6.07;;
5876;SDS011;2964;42.144;24.730;2023-07-08T14:28:01;5.70;;;5.07;;
5876;SDS011;2964;42.144;24.730;2023-07-08T14:30:30;5.55;;;5.10;;
5876;SDS011;2964;42.144;24.730;2023-07-08T14:32:57;5.68;;;5.40;;
5876;SDS011;2964;42.144;24.730;2023-07-08T14:35:25;4.88;;;4.57;;
5876;SDS011;2964;42.144;24.730;2023-07-08T14:37:53;5.60;;;3.88;;
5876;SDS011;2964;42.144;24.730;2023-07-08T14:40:24;5.80;;;5.35;;
5876;SDS011;2964;42.144;24.730;2023-07-08T14:42:55;5.07;;;4.78;;
5876;SDS011;2964;42.144;24.730;2023-07-08T14:45:25;6.05;;;5.68;;
5876;SDS011;2964;42.144;24.730;2023-07-08T14:47:52;5.35;;;5.15;;
5876;SDS011;2964;42.144;24.730;2023-07-08T14:50:19;6.03;;;5.78;;
5876;SDS011;2964;42.144;24.730;2023-07-08T14:52:46;6.15;;;5.60;;
5876;SDS011;2964;42.144;24.730;2023-07-08T14:55:13;6.25;;;5.95;;
5876;SDS011;2964;42.144;24.730;2023-07-08T14:57:43;6.55;;;5.72;;
5876;SDS011;2964;42.144;24.730;2023-07-08T15:00:13;5.60;;;5.40;;
5876;SDS011;2964;42.144;24.730;2023-07-08T15:02:42;6.50;;;5.90;;